createdAt,value
2019-05-11T00:02:22.019Z,6.72
2019-05-11T00:05:53.078Z,7.20
2019-05-11T00:09:22.480Z,6.62
2019-05-11T00:12:52.105Z,6.03
2019-05-11T00:16:21.950Z,7.25
2019-05-11T00:19:52.360Z,7.40
2019-05-11T00:23:21.969Z,7.50
2019-05-11T00:26:51.620Z,6.92
2019-05-11T00:30:21.020Z,7.17
2019-05-11T00:33:51.065Z,7.37
2019-05-11T00:37:21.190Z,8.05
2019-05-11T00:40:50.831Z,6.83
2019-05-11T00:44:21.178Z,8.23
2019-05-11T00:47:51.763Z,10.20
2019-05-11T00:51:22.466Z,10.00
2019-05-11T00:54:52.573Z,9.30
2019-05-11T00:58:21.919Z,12.37
2019-05-11T01:01:51.413Z,12.78
2019-05-11T01:05:21.119Z,11.20
2019-05-11T01:08:50.529Z,7.65
2019-05-11T01:12:20.323Z,8.35
2019-05-11T01:15:50.932Z,8.95
2019-05-11T01:19:21.122Z,21.07
2019-05-11T01:22:50.763Z,16.62
2019-05-11T01:26:20.533Z,11.50
2019-05-11T01:29:50.560Z,11.85
2019-05-11T01:33:19.726Z,13.15
2019-05-11T01:36:49.450Z,11.78
2019-05-11T01:40:19.780Z,10.32
2019-05-11T01:43:49.547Z,6.58
2019-05-11T01:47:19.335Z,8.05
2019-05-11T01:50:48.469Z,6.67
2019-05-11T01:54:17.892Z,6.78
2019-05-11T01:57:47.091Z,6.40
2019-05-11T02:01:17.592Z,7.55
2019-05-11T02:04:49.024Z,8.55
2019-05-11T02:08:18.340Z,21.30
2019-05-11T02:11:47.629Z,16.32
2019-05-11T02:15:17.904Z,12.28
2019-05-11T02:18:48.186Z,8.18
2019-05-11T02:22:18.274Z,8.35
2019-05-11T02:25:48.029Z,15.58
2019-05-11T02:29:17.823Z,22.95
2019-05-11T02:32:48.508Z,21.85
2019-05-11T02:36:18.462Z,14.70
2019-05-11T02:39:47.669Z,9.35
2019-05-11T02:43:18.240Z,9.23
2019-05-11T02:46:47.775Z,8.60
2019-05-11T02:50:17.424Z,7.47
2019-05-11T02:53:46.693Z,6.30
2019-05-11T02:57:16.642Z,6.78
2019-05-11T03:00:46.878Z,5.25
2019-05-11T03:04:16.369Z,6.80
2019-05-11T03:07:46.012Z,6.92
2019-05-11T03:11:16.166Z,7.12
2019-05-11T03:14:45.581Z,6.78
2019-05-11T03:18:14.877Z,6.58
2019-05-11T03:21:44.439Z,7.25
2019-05-11T03:25:13.710Z,7.40
2019-05-11T03:28:42.850Z,7.60
2019-05-11T03:32:12.441Z,6.33
2019-05-11T03:35:42.001Z,7.53
2019-05-11T03:39:11.718Z,7.08
2019-05-11T03:42:41.839Z,5.97
2019-05-11T03:46:11.525Z,6.90
2019-05-11T03:49:41.090Z,5.90
2019-05-11T03:53:11.451Z,8.03
2019-05-11T03:56:41.125Z,5.80
2019-05-11T04:00:10.981Z,6.03
2019-05-11T04:03:40.737Z,7.05
2019-05-11T04:07:11.338Z,7.10
2019-05-11T04:10:42.354Z,6.35
2019-05-11T04:14:12.161Z,7.12
2019-05-11T04:17:42.239Z,6.90
2019-05-11T04:21:12.789Z,6.60
2019-05-11T04:24:42.662Z,6.78
2019-05-11T04:28:13.251Z,5.83
2019-05-11T04:31:43.297Z,6.40
2019-05-11T04:35:12.987Z,4.83
2019-05-11T04:38:42.430Z,5.55
2019-05-11T04:42:12.464Z,5.65
2019-05-11T04:45:42.232Z,5.15
2019-05-11T04:49:11.703Z,5.58
2019-05-11T04:52:42.021Z,6.55
2019-05-11T04:56:11.509Z,6.03
2019-05-11T04:59:41.625Z,5.25
2019-05-11T05:03:11.373Z,6.55
2019-05-11T05:06:40.620Z,4.65
2019-05-11T05:10:13.953Z,11.65
2019-05-11T05:13:41.326Z,5.35
2019-05-11T05:17:11.619Z,4.08
2019-05-11T05:20:43.806Z,4.28
2019-05-11T05:24:12.259Z,4.12
2019-05-11T05:27:42.144Z,4.12
2019-05-11T05:31:12.425Z,4.85
2019-05-11T05:34:42.005Z,5.15
2019-05-11T05:38:12.414Z,4.65
2019-05-11T05:41:42.542Z,4.50
2019-05-11T05:45:12.986Z,4.40
2019-05-11T05:48:42.949Z,4.30
2019-05-11T05:52:12.562Z,4.67
2019-05-11T05:55:42.049Z,4.15
2019-05-11T05:59:11.158Z,4.12
2019-05-11T06:02:40.725Z,4.80
2019-05-11T06:06:10.912Z,5.17
2019-05-11T06:09:40.402Z,4.67
2019-05-11T06:13:10.038Z,3.52
2019-05-11T06:16:39.193Z,3.52
2019-05-11T06:20:09.145Z,3.35
2019-05-11T06:23:38.626Z,3.65
2019-05-11T06:27:07.805Z,2.98
2019-05-11T06:30:37.446Z,3.98
2019-05-11T06:34:07.144Z,3.40
2019-05-11T06:37:36.910Z,2.40
2019-05-11T06:41:06.469Z,9.05
2019-05-11T06:44:36.811Z,4.72
2019-05-11T06:48:06.693Z,3.83
2019-05-11T06:51:40.215Z,3.22
2019-05-11T06:55:08.347Z,3.12
2019-05-11T06:58:38.372Z,3.15
2019-05-11T07:02:08.731Z,3.15
2019-05-11T07:05:37.917Z,2.85
2019-05-11T07:09:07.761Z,2.80
2019-05-11T07:12:38.124Z,4.03
2019-05-11T07:16:08.110Z,2.67
2019-05-11T07:19:38.549Z,3.10
2019-05-11T07:23:08.489Z,3.02
2019-05-11T07:26:38.154Z,2.87
2019-05-11T07:30:08.070Z,3.35
2019-05-11T07:33:38.065Z,2.65
2019-05-11T07:37:08.478Z,2.52
2019-05-11T07:40:39.730Z,2.80
2019-05-11T07:44:10.191Z,2.45
2019-05-11T07:47:41.532Z,2.40
2019-05-11T07:51:11.592Z,3.10
2019-05-11T07:54:44.589Z,2.98
2019-05-11T07:58:14.879Z,2.95
2019-05-11T08:01:44.558Z,2.33
2019-05-11T08:05:14.800Z,2.08
2019-05-11T08:08:44.887Z,2.55
2019-05-11T08:12:14.542Z,2.45
2019-05-11T08:15:44.026Z,2.60
2019-05-11T08:19:13.982Z,2.30
2019-05-11T08:22:44.460Z,2.08
2019-05-11T08:26:14.245Z,2.92
2019-05-11T08:29:44.023Z,2.87
2019-05-11T08:33:14.010Z,2.22
2019-05-11T08:36:43.745Z,2.50
2019-05-11T08:40:13.355Z,5.37
2019-05-11T08:43:42.814Z,2.42
2019-05-11T08:47:12.113Z,2.10
2019-05-11T08:50:41.756Z,2.52
2019-05-11T08:54:11.947Z,2.05
2019-05-11T08:57:42.134Z,3.60
2019-05-11T09:01:11.571Z,4.40
2019-05-11T09:04:44.199Z,3.10
2019-05-11T09:08:14.071Z,3.27
2019-05-11T09:11:48.298Z,2.75
2019-05-11T09:15:32.484Z,2.42
2019-05-11T09:18:48.691Z,11.43
2019-05-11T09:22:19.228Z,5.47
2019-05-11T09:25:50.179Z,11.25
2019-05-11T09:29:20.793Z,7.00
2019-05-11T09:32:50.120Z,2.85
2019-05-11T09:36:20.457Z,2.47
2019-05-11T09:39:50.281Z,2.20
2019-05-11T09:43:19.311Z,2.87
2019-05-11T09:46:49.109Z,2.30
2019-05-11T09:50:19.618Z,3.02
2019-05-11T09:53:49.386Z,6.45
2019-05-11T09:57:19.744Z,4.45
2019-05-11T10:00:50.042Z,4.08
2019-05-11T10:04:20.281Z,2.98
2019-05-11T10:07:50.415Z,2.33
2019-05-11T10:14:38.802Z,3.22
2019-05-11T10:18:09.207Z,4.75
2019-05-11T10:26:31.691Z,6.05
2019-05-11T10:30:01.638Z,4.90
2019-05-11T10:33:33.240Z,4.03
2019-05-11T10:37:03.510Z,3.80
2019-05-11T10:40:33.531Z,3.98
2019-05-11T10:44:03.930Z,4.47
2019-05-11T10:47:34.356Z,4.08
2019-05-11T10:51:04.826Z,4.12
2019-05-11T10:54:35.673Z,3.45
2019-05-11T10:58:08.442Z,7.00
2019-05-11T11:01:38.074Z,4.17
2019-05-11T11:05:08.450Z,4.37
2019-05-11T11:08:38.962Z,4.00
2019-05-11T11:12:09.929Z,3.70
2019-05-11T11:15:40.165Z,3.35
2019-05-11T11:19:10.042Z,3.70
2019-05-11T11:22:44.054Z,3.75
2019-05-11T11:26:11.514Z,6.87
2019-05-11T11:29:41.840Z,4.65
2019-05-11T11:33:12.112Z,5.58
2019-05-11T11:36:42.557Z,4.70
2019-05-11T11:40:12.278Z,4.03
2019-05-11T11:43:42.603Z,3.87
2019-05-11T11:47:12.550Z,3.58
2019-05-11T11:50:42.775Z,3.00
2019-05-11T11:54:12.335Z,3.65
2019-05-11T11:57:42.996Z,2.90
2019-05-11T12:01:13.562Z,11.15
2019-05-11T12:04:44.022Z,8.78
2019-05-11T12:08:15.013Z,8.88
2019-05-11T12:11:45.146Z,7.20
2019-05-11T12:15:15.167Z,2.95
2019-05-11T12:18:45.092Z,5.62
2019-05-11T12:22:15.783Z,18.75
2019-05-11T12:25:53.593Z,10.43
2019-05-11T12:29:24.161Z,6.85
2019-05-11T12:32:54.291Z,3.52
2019-05-11T12:36:24.849Z,8.75
2019-05-11T12:39:55.044Z,14.60
2019-05-11T12:43:24.957Z,6.87
2019-05-11T12:46:58.144Z,3.17
2019-05-11T12:50:28.605Z,46.68
2019-05-11T12:53:59.867Z,9.38
2019-05-11T12:57:30.925Z,11.00
2019-05-11T13:01:01.173Z,14.20
2019-05-11T13:04:31.974Z,24.72
2019-05-11T13:08:02.475Z,19.12
2019-05-11T13:11:32.874Z,11.83
2019-05-11T13:15:04.704Z,15.60
2019-05-11T13:18:35.476Z,17.17
2019-05-11T13:22:07.737Z,17.67
2019-05-11T13:25:38.816Z,18.77
2019-05-11T13:29:09.128Z,8.88
2019-05-11T13:32:39.377Z,88.58
2019-05-11T13:36:10.602Z,88.87
2019-05-11T13:39:41.330Z,37.80
2019-05-11T13:43:11.556Z,18.50
2019-05-11T13:46:42.007Z,4.25
2019-05-11T13:50:12.605Z,3.77
2019-05-11T13:53:43.198Z,4.22
2019-05-11T13:57:13.096Z,6.28
2019-05-11T14:00:43.239Z,5.70
2019-05-11T14:04:14.210Z,6.28
2019-05-11T14:07:44.077Z,5.00
2019-05-11T14:11:14.113Z,18.75
2019-05-11T14:14:45.134Z,60.45
2019-05-11T14:18:17.762Z,31.02
2019-05-11T14:21:49.098Z,24.70
2019-05-11T14:25:20.202Z,17.45
2019-05-11T14:28:51.341Z,19.70
2019-05-11T14:32:22.640Z,9.55
2019-05-11T14:35:52.784Z,4.85
2019-05-11T14:39:22.737Z,3.40
2019-05-11T14:42:53.166Z,11.65
2019-05-11T14:46:23.372Z,30.35
2019-05-11T14:49:54.419Z,26.55
2019-05-11T14:53:25.103Z,15.90
2019-05-11T14:56:55.959Z,39.80
2019-05-11T15:00:25.991Z,30.43
2019-05-11T15:03:58.727Z,14.05
2019-05-11T15:45:30.564Z,30.12
2019-05-11T15:50:00.341Z,29.52
2019-05-11T15:54:31.663Z,16.65
2019-05-11T15:59:02.805Z,25.80
2019-05-11T16:08:03.361Z,21.00
2019-05-11T16:12:33.352Z,22.77
2019-05-11T16:17:04.035Z,12.63
2019-05-11T16:21:34.710Z,10.30
2019-05-11T16:26:04.935Z,21.35
2019-05-11T16:35:08.607Z,13.45
2019-05-11T16:39:38.553Z,55.98
2019-05-11T16:44:08.691Z,134.32
2019-05-11T16:48:38.827Z,85.65
2019-05-11T16:53:09.388Z,26.75
2019-05-11T16:57:39.770Z,78.67
2019-05-11T17:02:10.834Z,50.78
2019-05-11T17:06:41.485Z,66.62
2019-05-11T17:11:12.487Z,140.88
2019-05-11T17:15:43.134Z,241.48
2019-05-11T17:20:14.149Z,95.32
2019-05-11T17:24:44.978Z,37.17
2019-05-11T17:29:15.509Z,39.13
2019-05-11T17:33:47.689Z,43.95
2019-05-11T17:38:18.545Z,50.70
2019-05-11T17:42:48.980Z,34.15
2019-05-11T17:47:18.808Z,36.90
2019-05-11T17:56:18.993Z,23.22
2019-05-11T18:00:50.368Z,23.80
2019-05-11T18:05:20.488Z,76.33
2019-05-11T18:09:50.551Z,55.70
2019-05-11T18:14:21.130Z,97.20
2019-05-11T18:18:52.225Z,27.00
2019-05-11T18:23:22.148Z,83.20
2019-05-11T18:27:52.838Z,49.48
2019-05-11T18:32:22.838Z,69.82
2019-05-11T18:36:53.247Z,33.83
2019-05-11T18:41:23.719Z,27.70
2019-05-11T18:45:55.020Z,92.15
2019-05-11T18:54:57.857Z,31.52
2019-05-11T18:59:28.516Z,18.75
2019-05-11T19:04:00.115Z,47.03
2019-05-11T19:08:31.195Z,56.18
2019-05-11T19:13:01.404Z,40.95
2019-05-11T19:17:32.294Z,66.22
2019-05-11T19:22:03.204Z,31.97
2019-05-11T19:26:34.562Z,13.45
2019-05-11T19:31:08.367Z,119.70
2019-05-11T19:35:38.015Z,78.65
2019-05-11T19:40:09.516Z,13.93
2019-05-11T19:44:40.588Z,5.10
2019-05-11T19:49:11.437Z,4.08
2019-05-11T19:53:43.162Z,18.17
2019-05-11T20:02:42.240Z,22.75
2019-05-11T20:07:13.318Z,14.83
2019-05-11T20:16:13.276Z,28.35
2019-05-11T20:20:44.679Z,25.37
2019-05-11T20:25:18.033Z,73.20
2019-05-11T20:29:48.500Z,44.55
2019-05-11T20:34:19.135Z,13.50
2019-05-11T20:38:49.344Z,8.65
2019-05-11T20:43:20.000Z,9.58
2019-05-11T20:47:50.030Z,4.05
2019-05-11T20:52:20.842Z,6.25
2019-05-11T20:56:51.828Z,6.10
2019-05-11T21:01:23.846Z,6.40
2019-05-11T21:05:54.850Z,4.00
2019-05-11T21:10:27.875Z,3.70
2019-05-11T21:14:58.538Z,8.53
2019-05-11T21:19:29.576Z,25.12
2019-05-11T21:24:00.513Z,26.40
2019-05-11T21:28:31.457Z,10.05
2019-05-11T21:33:03.659Z,7.03
2019-05-11T21:37:33.946Z,7.47
2019-05-11T21:42:04.180Z,11.88
2019-05-11T21:46:34.378Z,20.77
2019-05-11T21:51:04.810Z,3.60
2019-05-11T22:00:09.479Z,4.22
2019-05-11T22:04:42.932Z,3.47
2019-05-11T22:09:14.148Z,3.33
2019-05-11T22:13:45.054Z,3.33
2019-05-11T22:18:29.815Z,3.35
2019-05-11T22:22:48.650Z,3.65
2019-05-11T22:27:19.243Z,5.37
2019-05-11T22:31:49.375Z,2.90
2019-05-11T22:36:19.728Z,6.03
2019-05-11T22:45:19.261Z,4.83
2019-05-11T22:49:49.846Z,32.00
2019-05-11T22:54:20.643Z,16.30
2019-05-11T22:58:51.732Z,5.15
2019-05-11T23:03:23.035Z,3.52
2019-05-11T23:07:53.561Z,3.98
2019-05-11T23:12:23.683Z,9.85
2019-05-11T23:16:54.122Z,7.47
2019-05-11T23:21:24.228Z,8.00
2019-05-11T23:25:54.287Z,10.93
2019-05-11T23:30:25.324Z,7.22
2019-05-11T23:34:55.481Z,13.90
2019-05-11T23:39:25.618Z,20.27
2019-05-11T23:43:58.215Z,15.75
2019-05-11T23:48:28.056Z,7.17
2019-05-11T23:53:06.599Z,8.95
2019-05-11T23:57:33.174Z,4.58
